createdAt,value
2019-02-15T00:00:40.821Z,1.90
2019-02-15T00:01:25.153Z,1.83
2019-02-15T00:02:01.429Z,1.20
2019-02-15T00:02:37.454Z,1.90
2019-02-15T00:03:13.639Z,1.47
2019-02-15T00:03:49.877Z,1.77
2019-02-15T00:04:25.938Z,1.60
2019-02-15T00:05:02.095Z,1.57
2019-02-15T00:05:38.262Z,1.40
2019-02-15T00:06:14.479Z,1.43
2019-02-15T00:06:50.519Z,1.60
2019-02-15T00:07:26.493Z,1.50
2019-02-15T00:08:02.483Z,1.90
2019-02-15T00:08:38.794Z,1.43
2019-02-15T00:09:15.069Z,2.00
2019-02-15T00:09:51.427Z,1.43
2019-02-15T00:10:27.571Z,1.83
2019-02-15T00:11:03.651Z,2.70
2019-02-15T00:11:39.701Z,1.63
2019-02-15T00:12:15.984Z,1.63
2019-02-15T00:12:52.092Z,1.70
2019-02-15T00:13:28.205Z,1.00
2019-02-15T00:14:04.336Z,1.60
2019-02-15T00:14:58.725Z,1.40
2019-02-15T00:15:34.656Z,1.57
2019-02-15T00:16:10.830Z,1.57
2019-02-15T00:16:47.062Z,1.87
2019-02-15T00:17:40.410Z,1.60
2019-02-15T00:18:33.509Z,1.40
2019-02-15T00:19:37.323Z,1.40
2019-02-15T00:20:21.954Z,1.07
2019-02-15T00:21:20.577Z,1.80
2019-02-15T00:21:56.504Z,1.60
2019-02-15T00:22:32.612Z,2.57
2019-02-15T00:23:08.641Z,1.57
2019-02-15T00:23:44.875Z,1.13
2019-02-15T00:24:21.084Z,2.03
2019-02-15T00:24:57.304Z,1.43
2019-02-15T00:25:33.334Z,1.73
2019-02-15T00:26:09.629Z,2.90
2019-02-15T00:26:45.783Z,1.87
2019-02-15T00:27:21.862Z,1.50
2019-02-15T00:27:57.954Z,1.80
2019-02-15T00:28:34.120Z,1.87
2019-02-15T00:29:10.200Z,2.00
2019-02-15T00:29:46.293Z,1.97
2019-02-15T00:30:22.400Z,2.13
2019-02-15T00:30:58.705Z,2.10
2019-02-15T00:31:35.014Z,1.90
2019-02-15T00:32:11.096Z,1.77
2019-02-15T00:32:47.345Z,1.50
2019-02-15T00:33:23.815Z,1.60
2019-02-15T00:33:59.789Z,1.77
2019-02-15T00:34:35.766Z,2.33
2019-02-15T00:35:12.118Z,1.33
2019-02-15T00:35:48.154Z,2.13
2019-02-15T00:36:24.138Z,2.13
2019-02-15T00:37:00.500Z,1.50
2019-02-15T00:37:36.707Z,2.13
2019-02-15T00:38:12.939Z,2.20
2019-02-15T00:38:49.260Z,1.70
2019-02-15T00:39:25.285Z,2.07
2019-02-15T00:40:01.367Z,1.73
2019-02-15T00:40:37.308Z,1.77
2019-02-15T00:41:13.366Z,1.87
2019-02-15T00:41:49.459Z,1.53
2019-02-15T00:42:25.549Z,2.60
2019-02-15T00:43:01.619Z,1.60
2019-02-15T00:43:39.411Z,2.40
2019-02-15T00:44:15.636Z,2.37
2019-02-15T00:44:51.747Z,2.10
2019-02-15T00:45:30.301Z,2.00
2019-02-15T00:46:28.237Z,1.53
2019-02-15T00:47:31.843Z,1.23
2019-02-15T00:48:12.416Z,1.80
2019-02-15T00:48:48.552Z,1.73
2019-02-15T00:49:37.978Z,2.40
2019-02-15T00:50:28.680Z,2.10
2019-02-15T00:51:26.295Z,1.60
2019-02-15T00:52:16.305Z,1.13
2019-02-15T00:53:11.162Z,1.80
2019-02-15T00:53:52.490Z,1.70
2019-02-15T00:54:33.619Z,1.83
2019-02-15T00:55:34.099Z,1.40
2019-02-15T00:56:23.294Z,1.53
2019-02-15T00:57:16.489Z,2.10
2019-02-15T00:58:06.279Z,2.00
2019-02-15T00:59:01.206Z,2.07
2019-02-15T00:59:58.847Z,1.67
2019-02-15T01:00:49.648Z,1.20
2019-02-15T01:01:41.633Z,1.37
2019-02-15T01:02:54.828Z,2.93
2019-02-15T01:03:49.342Z,2.10
2019-02-15T01:04:44.013Z,1.97
2019-02-15T01:05:53.879Z,1.30
2019-02-15T01:06:51.566Z,2.60
2019-02-15T01:07:52.286Z,1.80
2019-02-15T01:08:45.399Z,2.20
2019-02-15T01:09:46.380Z,1.53
2019-02-15T01:10:50.027Z,2.10
2019-02-15T01:11:32.357Z,1.90
2019-02-15T01:12:14.855Z,1.43
2019-02-15T01:13:04.524Z,1.40
2019-02-15T01:13:40.546Z,2.17
2019-02-15T01:14:16.703Z,2.17
2019-02-15T01:14:52.795Z,2.00
2019-02-15T01:15:29.009Z,1.73
2019-02-15T01:16:04.979Z,1.00
2019-02-15T01:16:41.052Z,2.23
2019-02-15T01:17:17.245Z,1.93
2019-02-15T01:17:53.607Z,1.00
2019-02-15T01:18:29.757Z,1.60
2019-02-15T01:19:05.725Z,1.30
2019-02-15T01:19:41.768Z,2.30
2019-02-15T01:20:17.798Z,2.80
2019-02-15T01:20:53.978Z,3.00
2019-02-15T01:21:30.066Z,2.00
2019-02-15T01:22:06.253Z,1.63
2019-02-15T01:22:42.411Z,1.50
2019-02-15T01:23:18.586Z,1.70
2019-02-15T01:23:54.663Z,1.17
2019-02-15T01:24:30.861Z,2.00
2019-02-15T01:25:07.075Z,1.53
2019-02-15T01:43:53.774Z,1.50
2019-02-15T01:44:37.584Z,2.60
2019-02-15T01:45:20.730Z,4.03
2019-02-15T01:46:02.019Z,3.20
2019-02-15T01:46:45.549Z,2.17
2019-02-15T01:47:34.981Z,2.80
2019-02-15T01:48:11.107Z,1.57
2019-02-15T01:48:47.177Z,2.67
2019-02-15T01:49:23.404Z,9.80
2019-02-15T01:49:59.680Z,9.77
2019-02-15T01:50:35.878Z,5.00
2019-02-15T01:51:12.029Z,3.33
2019-02-15T01:51:48.307Z,2.90
2019-02-15T01:52:24.276Z,2.00
2019-02-15T01:53:00.167Z,2.67
2019-02-15T01:53:36.179Z,2.70
2019-02-15T01:54:12.232Z,1.50
2019-02-15T01:54:48.297Z,1.97
2019-02-15T01:55:24.651Z,1.70
2019-02-15T01:56:00.756Z,2.30
2019-02-15T01:56:36.804Z,1.63
2019-02-15T01:57:13.024Z,1.97
2019-02-15T01:57:49.019Z,1.60
2019-02-15T01:58:25.169Z,2.30
2019-02-15T01:59:01.456Z,2.20
2019-02-15T01:59:37.607Z,2.13
2019-02-15T02:00:16.253Z,1.87
2019-02-15T02:00:52.382Z,1.60
2019-02-15T02:01:29.524Z,1.83
2019-02-15T02:02:05.710Z,2.43
2019-02-15T02:02:41.803Z,1.63
2019-02-15T02:03:18.089Z,2.50
2019-02-15T02:03:54.025Z,2.50
2019-02-15T02:04:29.968Z,2.20
2019-02-15T02:05:06.094Z,2.40
2019-02-15T02:05:42.399Z,2.13
2019-02-15T02:06:18.542Z,3.00
2019-02-15T02:06:54.743Z,2.20
2019-02-15T02:07:30.882Z,2.17
2019-02-15T02:08:08.752Z,2.23
2019-02-15T02:08:44.843Z,3.07
2019-02-15T02:09:21.014Z,3.60
2019-02-15T02:09:57.126Z,3.30
2019-02-15T02:10:33.567Z,2.53
2019-02-15T02:11:09.604Z,2.37
2019-02-15T02:11:45.794Z,2.30
2019-02-15T02:12:21.788Z,2.60
2019-02-15T02:12:57.871Z,2.37
2019-02-15T02:13:33.998Z,1.90
2019-02-15T02:14:10.123Z,1.60
2019-02-15T02:14:46.278Z,2.80
2019-02-15T02:15:22.238Z,2.90
2019-02-15T02:15:58.385Z,2.80
2019-02-15T02:16:34.723Z,2.50
2019-02-15T02:17:10.854Z,2.40
2019-02-15T02:17:46.993Z,2.20
2019-02-15T02:18:23.147Z,2.40
2019-02-15T02:18:59.257Z,2.50
2019-02-15T02:19:35.488Z,1.60
2019-02-15T02:20:12.584Z,2.83
2019-02-15T02:20:48.746Z,2.30
2019-02-15T02:21:24.783Z,2.87
2019-02-15T02:22:00.957Z,2.30
2019-02-15T02:22:37.229Z,3.47
2019-02-15T02:23:13.278Z,2.40
2019-02-15T02:23:49.331Z,1.90
2019-02-15T02:24:25.364Z,1.70
2019-02-15T02:25:01.578Z,2.83
2019-02-15T02:25:37.718Z,1.83
2019-02-15T02:26:14.043Z,2.23
2019-02-15T02:26:50.067Z,1.93
2019-02-15T02:27:26.420Z,3.20
2019-02-15T02:28:02.678Z,3.40
2019-02-15T02:28:38.856Z,3.80
2019-02-15T02:29:14.910Z,2.60
2019-02-15T02:29:50.930Z,3.00
2019-02-15T02:30:27.135Z,2.70
2019-02-15T02:31:03.419Z,2.60
2019-02-15T02:31:39.577Z,2.80
2019-02-15T02:32:15.739Z,2.60
2019-02-15T02:32:51.988Z,2.50
2019-02-15T02:33:28.183Z,1.73
2019-02-15T02:34:04.431Z,4.10
2019-02-15T02:34:40.984Z,2.57
2019-02-15T02:35:18.304Z,3.13
2019-02-15T02:35:54.323Z,3.30
2019-02-15T02:36:54.297Z,3.20
2019-02-15T02:37:30.500Z,4.10
2019-02-15T02:38:06.800Z,5.23
2019-02-15T02:38:42.920Z,5.63
2019-02-15T02:39:19.085Z,7.13
2019-02-15T02:39:55.220Z,6.30
2019-02-15T02:40:31.459Z,6.33
2019-02-15T02:41:07.725Z,5.53
2019-02-15T02:41:44.081Z,5.70
2019-02-15T02:42:20.152Z,4.80
2019-02-15T02:42:56.179Z,5.30
2019-02-15T02:43:32.190Z,4.50
2019-02-15T02:44:08.208Z,4.50
2019-02-15T02:44:44.598Z,3.80
2019-02-15T02:45:20.662Z,3.53
2019-02-15T02:45:56.826Z,2.30
2019-02-15T02:46:33.083Z,2.53
2019-02-15T02:47:09.138Z,2.83
2019-02-15T02:47:45.439Z,2.63
2019-02-15T02:48:21.456Z,3.10
2019-02-15T02:48:57.443Z,2.90
2019-02-15T02:49:33.468Z,2.77
2019-02-15T02:50:09.474Z,2.70
2019-02-15T02:50:45.662Z,3.47
2019-02-15T02:51:21.669Z,2.30
2019-02-15T02:51:57.960Z,3.20
2019-02-15T02:52:34.240Z,2.77
2019-02-15T02:53:10.444Z,3.10
2019-02-15T02:53:46.418Z,3.60
2019-02-15T02:54:22.593Z,2.77
2019-02-15T02:54:58.772Z,2.47
2019-02-15T02:55:35.048Z,2.53
2019-02-15T02:56:11.079Z,3.07
2019-02-15T02:56:47.104Z,2.00
2019-02-15T02:57:23.147Z,3.30
2019-02-15T02:57:59.140Z,2.57
2019-02-15T02:58:35.244Z,2.97
2019-02-15T02:59:11.387Z,2.83
2019-02-15T02:59:47.534Z,2.63
2019-02-15T03:00:32.982Z,2.90
2019-02-15T03:01:01.670Z,2.80
2019-02-15T03:01:37.956Z,2.00
2019-02-15T03:02:14.036Z,2.47
2019-02-15T03:02:50.143Z,2.03
2019-02-15T03:03:26.324Z,2.97
2019-02-15T03:04:02.378Z,2.60
2019-02-15T03:04:38.382Z,2.47
2019-02-15T03:05:14.522Z,2.90
2019-02-15T03:05:50.626Z,3.30
2019-02-15T03:06:26.645Z,3.30
2019-02-15T03:07:02.961Z,3.40
2019-02-15T03:07:39.149Z,3.77
2019-02-15T03:08:15.317Z,3.47
2019-02-15T03:08:51.481Z,3.37
2019-02-15T03:09:27.408Z,3.07
2019-02-15T03:10:03.470Z,3.00
2019-02-15T03:10:39.605Z,2.87
2019-02-15T03:11:15.905Z,2.90
2019-02-15T03:11:51.928Z,3.10
2019-02-15T03:12:28.118Z,3.20
2019-02-15T03:13:04.165Z,3.97
2019-02-15T03:13:40.383Z,3.57
2019-02-15T03:14:16.628Z,3.93
2019-02-15T03:14:52.750Z,3.67
2019-02-15T03:15:28.828Z,3.40
2019-02-15T03:16:05.134Z,3.43
2019-02-15T03:16:41.374Z,4.17
2019-02-15T03:17:17.540Z,4.20
2019-02-15T03:17:53.652Z,5.43
2019-02-15T03:18:29.754Z,4.57
2019-02-15T03:19:05.928Z,4.50
2019-02-15T03:19:42.096Z,4.50
2019-02-15T03:20:18.382Z,3.40
2019-02-15T03:20:54.603Z,4.27
2019-02-15T03:21:30.722Z,4.30
2019-02-15T03:22:06.785Z,3.53
2019-02-15T03:22:43.015Z,3.80
2019-02-15T03:23:19.105Z,4.10
2019-02-15T03:23:55.266Z,4.20
2019-02-15T03:24:31.580Z,4.53
2019-02-15T03:25:07.728Z,4.90
2019-02-15T03:25:43.829Z,4.47
2019-02-15T03:26:19.993Z,4.60
2019-02-15T03:26:56.085Z,3.37
2019-02-15T03:27:32.311Z,3.93
2019-02-15T03:28:08.492Z,3.40
2019-02-15T03:28:44.684Z,4.40
2019-02-15T03:29:20.667Z,3.07
2019-02-15T03:29:56.839Z,3.73
2019-02-15T03:30:32.925Z,3.47
2019-02-15T03:31:09.128Z,4.17
2019-02-15T03:31:45.219Z,4.20
2019-02-15T03:32:21.334Z,3.60
2019-02-15T03:32:57.573Z,4.00
2019-02-15T03:33:33.811Z,3.73
2019-02-15T03:34:10.134Z,3.50
2019-02-15T03:34:46.182Z,3.50
2019-02-15T03:35:22.417Z,3.50
2019-02-15T03:36:03.136Z,4.80
2019-02-15T03:37:06.694Z,4.33
2019-02-15T03:38:02.314Z,3.90
2019-02-15T03:39:02.852Z,5.07
2019-02-15T03:39:44.953Z,5.80
2019-02-15T03:40:33.922Z,4.10
2019-02-15T03:41:26.514Z,4.90
2019-02-15T03:42:02.731Z,4.47
2019-02-15T03:42:38.706Z,4.50
2019-02-15T03:43:14.838Z,3.80
2019-02-15T03:43:50.925Z,3.37
2019-02-15T03:44:27.003Z,3.83
2019-02-15T03:45:03.166Z,3.50
2019-02-15T03:45:39.580Z,4.87
2019-02-15T03:46:15.669Z,4.20
2019-02-15T03:46:52.127Z,3.63
2019-02-15T03:47:28.808Z,4.00
2019-02-15T03:48:05.044Z,3.47
2019-02-15T03:48:41.123Z,3.87
2019-02-15T03:49:17.160Z,4.20
2019-02-15T03:49:53.169Z,4.77
2019-02-15T03:50:29.275Z,3.50
2019-02-15T03:51:05.461Z,3.93
2019-02-15T03:51:41.526Z,3.73
2019-02-15T03:52:17.576Z,4.63
2019-02-15T03:52:53.717Z,3.30
2019-02-15T03:53:29.895Z,3.37
2019-02-15T03:54:06.150Z,4.63
2019-02-15T03:54:42.384Z,3.50
2019-02-15T03:55:18.539Z,4.00
2019-02-15T03:55:54.833Z,4.47
2019-02-15T03:56:30.975Z,3.83
2019-02-15T03:57:07.218Z,4.53
2019-02-15T03:57:43.310Z,5.63
2019-02-15T03:58:19.436Z,4.40
2019-02-15T03:58:55.543Z,4.87
2019-02-15T03:59:31.703Z,5.37
2019-02-15T04:00:09.116Z,6.17
2019-02-15T04:00:45.175Z,5.70
2019-02-15T04:01:21.149Z,5.30
2019-02-15T04:01:57.457Z,6.33
2019-02-15T04:02:33.747Z,5.00
2019-02-15T04:03:09.869Z,5.20
2019-02-15T04:03:46.227Z,4.30
2019-02-15T04:04:22.319Z,5.20
2019-02-15T04:04:58.348Z,3.80
2019-02-15T04:05:34.386Z,5.33
2019-02-15T04:06:10.673Z,4.47
2019-02-15T04:06:46.773Z,5.17
2019-02-15T04:07:22.871Z,4.60
2019-02-15T04:07:59.124Z,4.50
2019-02-15T04:08:35.269Z,3.70
2019-02-15T04:09:11.616Z,5.47
2019-02-15T04:09:47.917Z,5.70
2019-02-15T04:10:24.135Z,5.10
2019-02-15T04:11:00.322Z,5.87
2019-02-15T04:11:36.566Z,5.37
2019-02-15T04:12:12.877Z,4.77
2019-02-15T04:12:48.925Z,4.63
2019-02-15T04:13:24.989Z,4.70
2019-02-15T04:14:01.117Z,4.43
2019-02-15T04:14:37.200Z,3.70
2019-02-15T04:15:13.248Z,3.87
2019-02-15T04:15:49.260Z,3.23
2019-02-15T04:16:25.329Z,3.47
2019-02-15T04:17:01.394Z,4.10
2019-02-15T04:17:37.596Z,3.30
2019-02-15T04:18:13.834Z,3.90
2019-02-15T04:18:49.955Z,3.27
2019-02-15T04:19:26.314Z,3.80
2019-02-15T04:20:02.268Z,3.23
2019-02-15T04:20:38.456Z,3.53
2019-02-15T04:21:14.506Z,4.00
2019-02-15T04:21:50.790Z,3.87
2019-02-15T04:22:27.012Z,3.17
2019-02-15T04:23:03.111Z,3.83
2019-02-15T04:23:39.304Z,3.20
2019-02-15T04:24:15.252Z,3.53
2019-02-15T04:24:51.378Z,3.20
2019-02-15T04:25:27.663Z,3.67
2019-02-15T04:26:03.897Z,2.80
2019-02-15T04:26:40.049Z,3.30
2019-02-15T04:27:16.462Z,2.80
2019-02-15T04:27:52.523Z,2.60
2019-02-15T04:28:28.863Z,3.60
2019-02-15T04:29:05.005Z,2.83
2019-02-15T04:29:41.185Z,3.80
2019-02-15T04:30:17.344Z,3.97
2019-02-15T04:30:53.619Z,3.07
2019-02-15T04:31:29.753Z,3.07
2019-02-15T04:32:05.990Z,3.57
2019-02-15T04:32:42.083Z,3.03
2019-02-15T04:33:18.158Z,2.63
2019-02-15T04:33:54.128Z,4.10
2019-02-15T04:34:30.329Z,4.20
2019-02-15T04:35:06.502Z,3.07
2019-02-15T04:35:42.591Z,3.07
2019-02-15T04:36:18.638Z,3.27
2019-02-15T04:36:54.865Z,3.00
2019-02-15T04:37:30.873Z,2.37
2019-02-15T04:38:06.942Z,2.93
2019-02-15T04:38:43.048Z,2.60
2019-02-15T04:39:19.095Z,4.23
2019-02-15T04:39:55.240Z,3.17
2019-02-15T04:40:31.371Z,2.90
2019-02-15T04:41:07.542Z,3.10
2019-02-15T04:41:43.761Z,2.60
2019-02-15T04:42:19.864Z,2.27
2019-02-15T04:42:56.020Z,3.20
2019-02-15T04:43:32.027Z,3.70
2019-02-15T04:44:08.077Z,3.60
2019-02-15T04:44:44.224Z,3.70
2019-02-15T04:45:20.504Z,3.77
2019-02-15T04:45:56.657Z,3.20
2019-02-15T04:46:32.899Z,3.47
2019-02-15T04:47:09.114Z,4.20
2019-02-15T04:47:45.238Z,3.90
2019-02-15T04:48:21.528Z,3.20
2019-02-15T04:48:57.741Z,3.83
2019-02-15T04:49:33.863Z,3.70
2019-02-15T04:50:10.893Z,3.97
2019-02-15T04:50:47.022Z,3.83
2019-02-15T04:51:23.254Z,2.53
2019-02-15T04:51:59.454Z,3.20
2019-02-15T04:52:35.842Z,3.90
2019-02-15T04:53:12.185Z,2.50
2019-02-15T04:53:48.391Z,2.90
2019-02-15T04:54:24.356Z,3.00
2019-02-15T04:55:00.371Z,2.47
2019-02-15T04:55:36.623Z,2.93
2019-02-15T04:56:12.888Z,2.83
2019-02-15T04:56:49.030Z,2.23
2019-02-15T04:57:25.077Z,2.33
2019-02-15T04:58:01.316Z,3.07
2019-02-15T04:58:37.501Z,3.07
2019-02-15T04:59:13.582Z,3.00
2019-02-15T04:59:49.798Z,3.10
2019-02-15T05:00:26.006Z,2.63
2019-02-15T05:01:02.269Z,3.10
2019-02-15T05:01:38.523Z,2.73
2019-02-15T05:02:14.649Z,2.90
2019-02-15T05:02:50.964Z,2.47
2019-02-15T05:03:27.215Z,3.20
2019-02-15T05:04:03.484Z,2.30
2019-02-15T05:04:39.605Z,2.63
2019-02-15T05:05:15.868Z,3.23
2019-02-15T05:05:52.138Z,2.93
2019-02-15T05:06:28.241Z,3.30
2019-02-15T05:07:04.280Z,3.20
2019-02-15T05:07:40.439Z,3.00
2019-02-15T05:08:16.543Z,3.50
2019-02-15T05:08:52.634Z,3.40
2019-02-15T05:09:28.902Z,3.00
2019-02-15T05:10:05.181Z,2.67
2019-02-15T05:10:41.314Z,2.20
2019-02-15T05:11:17.421Z,3.00
2019-02-15T05:11:53.517Z,2.47
2019-02-15T05:12:29.630Z,2.40
2019-02-15T05:13:05.757Z,2.73
2019-02-15T05:13:41.962Z,3.40
2019-02-15T05:14:18.081Z,2.63
2019-02-15T05:14:54.311Z,3.73
2019-02-15T05:15:30.369Z,3.20
2019-02-15T05:16:06.476Z,3.00
2019-02-15T05:16:42.434Z,2.70
2019-02-15T05:17:18.404Z,3.50
2019-02-15T05:17:54.673Z,2.90
2019-02-15T05:18:30.910Z,4.07
2019-02-15T05:19:06.955Z,3.13
2019-02-15T05:19:42.863Z,2.83
2019-02-15T05:20:18.995Z,3.00
2019-02-15T05:20:55.170Z,2.70
2019-02-15T05:21:31.369Z,3.00
2019-02-15T05:22:07.789Z,2.60
2019-02-15T05:22:43.733Z,2.70
2019-02-15T05:23:19.949Z,3.27
2019-02-15T05:23:56.084Z,2.73
2019-02-15T05:24:32.192Z,3.27
2019-02-15T05:25:08.396Z,3.00
2019-02-15T05:25:44.454Z,2.60
2019-02-15T05:26:20.635Z,2.70
2019-02-15T05:26:56.671Z,3.20
2019-02-15T05:27:32.750Z,2.77
2019-02-15T05:28:09.087Z,4.00
2019-02-15T05:28:45.259Z,2.80
2019-02-15T05:29:21.434Z,2.77
2019-02-15T05:29:57.561Z,3.23
2019-02-15T05:30:33.623Z,2.73
2019-02-15T05:31:09.629Z,3.67
2019-02-15T05:31:45.929Z,3.40
2019-02-15T05:32:21.995Z,2.77
2019-02-15T05:32:58.113Z,3.50
2019-02-15T05:33:35.696Z,2.70
2019-02-15T05:34:11.790Z,3.73
2019-02-15T05:34:47.942Z,3.60
2019-02-15T05:35:24.185Z,3.40
2019-02-15T05:36:00.333Z,3.40
2019-02-15T05:36:36.547Z,2.70
2019-02-15T05:37:12.702Z,2.60
2019-02-15T05:37:48.773Z,3.60
2019-02-15T05:38:24.867Z,3.25
2019-02-15T05:39:00.935Z,2.60
2019-02-15T05:39:37.154Z,2.87
2019-02-15T05:40:13.409Z,3.50
2019-02-15T05:40:49.489Z,2.47
2019-02-15T05:41:25.550Z,2.77
2019-02-15T05:42:01.701Z,3.73
2019-02-15T05:42:37.863Z,3.63
2019-02-15T05:43:14.060Z,2.93
2019-02-15T05:43:50.196Z,3.00
2019-02-15T05:44:26.330Z,2.40
2019-02-15T05:45:04.168Z,2.77
2019-02-15T05:45:40.232Z,2.43
2019-02-15T05:46:16.173Z,3.07
2019-02-15T05:46:52.193Z,2.60
2019-02-15T05:47:28.529Z,3.20
2019-02-15T05:48:04.608Z,3.27
2019-02-15T05:48:40.894Z,3.00
2019-02-15T05:49:17.045Z,3.20
2019-02-15T05:49:53.215Z,3.13
2019-02-15T05:50:29.383Z,2.50
2019-02-15T05:51:05.515Z,2.90
2019-02-15T05:51:41.656Z,4.00
2019-02-15T05:52:17.825Z,3.50
2019-02-15T05:52:54.124Z,3.17
2019-02-15T05:53:30.251Z,3.30
2019-02-15T05:54:06.294Z,2.70
2019-02-15T05:54:42.606Z,2.30
2019-02-15T05:55:18.876Z,2.33
2019-02-15T05:55:55.160Z,3.03
2019-02-15T05:56:31.413Z,2.53
2019-02-15T05:57:09.550Z,2.30
2019-02-15T05:57:45.379Z,2.93
2019-02-15T05:58:21.644Z,2.93
2019-02-15T05:58:57.723Z,3.30
2019-02-15T05:59:33.932Z,3.53
2019-02-15T06:00:10.746Z,3.30
2019-02-15T06:00:47.051Z,3.00
2019-02-15T06:01:24.618Z,3.20
2019-02-15T06:02:00.745Z,3.03
2019-02-15T06:02:37.011Z,2.93
2019-02-15T06:03:13.802Z,2.80
2019-02-15T06:03:50.061Z,3.27
2019-02-15T06:04:26.147Z,3.47
2019-02-15T06:05:02.224Z,3.90
2019-02-15T06:05:38.284Z,3.23
2019-02-15T06:06:14.280Z,2.93
2019-02-15T06:06:50.362Z,3.20
2019-02-15T06:07:26.468Z,3.50
2019-02-15T06:08:02.501Z,3.47
2019-02-15T06:08:38.582Z,2.63
2019-02-15T06:09:14.742Z,3.70
2019-02-15T06:09:50.928Z,3.97
2019-02-15T06:10:27.086Z,2.70
2019-02-15T06:11:07.564Z,3.13
2019-02-15T06:11:41.229Z,2.93
2019-02-15T06:12:17.183Z,2.70
2019-02-15T06:12:53.488Z,3.47
2019-02-15T06:13:29.636Z,4.40
2019-02-15T06:14:05.669Z,3.90
2019-02-15T06:14:41.790Z,3.67
2019-02-15T06:15:17.996Z,4.90
2019-02-15T06:15:54.051Z,3.77
2019-02-15T06:16:30.368Z,4.03
2019-02-15T06:17:06.574Z,4.30
2019-02-15T06:17:42.710Z,4.10
2019-02-15T06:18:18.993Z,3.87
2019-02-15T06:18:55.131Z,4.50
2019-02-15T06:19:31.399Z,3.57
2019-02-15T06:20:07.962Z,4.40
2019-02-15T06:20:44.113Z,3.80
2019-02-15T06:21:20.362Z,3.90
2019-02-15T06:21:56.543Z,5.10
2019-02-15T06:22:32.726Z,3.70
2019-02-15T06:23:08.909Z,4.83
2019-02-15T06:23:45.304Z,4.07
2019-02-15T06:24:21.457Z,4.50
2019-02-15T06:24:57.545Z,4.60
2019-02-15T06:25:33.789Z,4.60
2019-02-15T06:26:09.928Z,4.30
2019-02-15T06:26:46.114Z,5.13
2019-02-15T06:27:22.138Z,4.27
2019-02-15T06:27:58.105Z,4.07
2019-02-15T06:28:34.396Z,4.60
2019-02-15T06:29:10.540Z,3.93
2019-02-15T06:29:46.788Z,4.20
2019-02-15T06:30:22.968Z,4.60
2019-02-15T06:30:59.014Z,4.53
2019-02-15T06:31:35.129Z,3.90
2019-02-15T06:32:11.218Z,5.10
2019-02-15T06:32:47.341Z,3.57
2019-02-15T06:33:23.646Z,5.13
2019-02-15T06:33:59.874Z,3.60
2019-02-15T06:34:36.264Z,4.50
2019-02-15T06:35:12.330Z,4.33
2019-02-15T06:35:48.421Z,3.77
2019-02-15T06:36:26.288Z,4.43
2019-02-15T06:37:02.400Z,4.13
2019-02-15T06:37:38.745Z,4.10
2019-02-15T06:38:14.988Z,4.27
2019-02-15T06:38:51.091Z,4.05
2019-02-15T06:39:27.400Z,3.83
2019-02-15T06:40:03.523Z,4.70
2019-02-15T06:40:39.632Z,3.77
2019-02-15T06:41:15.693Z,3.33
2019-02-15T06:41:51.965Z,3.20
2019-02-15T06:42:28.000Z,3.90
2019-02-15T06:43:04.006Z,4.23
2019-02-15T06:43:39.993Z,4.43
2019-02-15T06:44:16.419Z,3.97
2019-02-15T06:44:52.456Z,4.30
2019-02-15T06:45:28.437Z,4.73
2019-02-15T06:46:04.648Z,3.80
2019-02-15T06:46:40.692Z,3.73
2019-02-15T06:47:16.831Z,3.70
2019-02-15T06:47:52.834Z,3.70
2019-02-15T06:48:29.045Z,3.47
2019-02-15T06:49:05.160Z,3.63
2019-02-15T06:49:41.357Z,4.30
2019-02-15T06:50:17.402Z,4.40
2019-02-15T06:50:53.569Z,4.17
2019-02-15T06:51:29.775Z,3.90
2019-02-15T06:52:05.767Z,4.17
2019-02-15T06:52:42.026Z,3.20
2019-02-15T06:53:18.114Z,4.40
2019-02-15T06:53:54.099Z,4.03
2019-02-15T06:54:30.142Z,4.40
2019-02-15T06:55:06.238Z,4.50
2019-02-15T06:55:42.520Z,4.07
2019-02-15T06:56:18.749Z,4.00
2019-02-15T06:56:54.774Z,4.20
2019-02-15T06:57:30.921Z,4.30
2019-02-15T06:58:07.028Z,3.47
2019-02-15T06:58:58.571Z,3.67
2019-02-15T06:59:45.743Z,3.63
2019-02-15T07:00:48.212Z,5.00
2019-02-15T07:01:31.810Z,4.73
2019-02-15T07:02:27.085Z,4.93
2019-02-15T07:03:27.698Z,4.20
2019-02-15T07:04:08.041Z,4.67
2019-02-15T07:04:58.509Z,4.43
2019-02-15T07:05:34.837Z,5.07
2019-02-15T07:06:10.799Z,4.77
2019-02-15T07:06:47.062Z,3.97
2019-02-15T07:07:23.253Z,5.33
2019-02-15T07:07:59.433Z,4.27
2019-02-15T07:08:35.495Z,3.97
2019-02-15T07:09:11.653Z,4.60
2019-02-15T07:09:47.924Z,4.17
2019-02-15T07:10:24.113Z,4.80
2019-02-15T07:11:00.346Z,4.33
2019-02-15T07:11:36.463Z,4.23
2019-02-15T07:12:12.596Z,5.20
2019-02-15T07:12:49.009Z,3.90
2019-02-15T07:13:25.213Z,3.80
2019-02-15T07:14:01.389Z,3.50
2019-02-15T07:14:37.553Z,3.60
2019-02-15T07:15:13.766Z,4.20
2019-02-15T07:15:50.088Z,3.90
2019-02-15T07:16:26.088Z,4.50
2019-02-15T07:17:02.285Z,4.07
2019-02-15T07:17:38.550Z,4.60
2019-02-15T07:18:14.555Z,4.40
2019-02-15T07:18:50.711Z,5.27
2019-02-15T07:19:26.634Z,3.50
2019-02-15T07:20:02.721Z,3.87
2019-02-15T07:20:38.791Z,4.40
2019-02-15T07:21:15.029Z,3.67
2019-02-15T07:21:51.092Z,4.60
2019-02-15T07:22:27.235Z,4.60
2019-02-15T07:23:03.347Z,5.03
2019-02-15T07:23:39.502Z,4.13
2019-02-15T07:24:15.703Z,4.23
2019-02-15T07:24:51.911Z,5.20
2019-02-15T07:25:28.196Z,5.60
2019-02-15T07:26:04.469Z,5.43
2019-02-15T07:26:40.586Z,6.30
2019-02-15T07:27:16.597Z,4.90
2019-02-15T07:27:52.792Z,4.83
2019-02-15T07:28:28.987Z,4.60
2019-02-15T07:29:05.059Z,4.43
2019-02-15T07:29:41.292Z,4.37
2019-02-15T07:30:17.272Z,4.63
2019-02-15T07:30:53.471Z,5.17
2019-02-15T07:31:29.540Z,4.80
2019-02-15T07:32:05.692Z,5.17
2019-02-15T07:32:41.600Z,4.27
2019-02-15T07:33:17.676Z,5.20
2019-02-15T07:33:53.879Z,5.10
2019-02-15T07:34:29.909Z,5.10
2019-02-15T07:35:06.065Z,4.73
2019-02-15T07:35:42.330Z,5.67
2019-02-15T07:36:18.363Z,5.00
2019-02-15T07:36:54.499Z,3.90
2019-02-15T07:37:30.657Z,4.77
2019-02-15T07:38:06.940Z,4.90
2019-02-15T07:38:43.037Z,4.00
2019-02-15T07:39:19.244Z,5.80
2019-02-15T07:39:55.330Z,5.27
2019-02-15T07:40:31.424Z,4.33
2019-02-15T07:41:07.442Z,4.23
2019-02-15T07:41:43.560Z,5.40
2019-02-15T07:42:21.264Z,5.00
2019-02-15T07:42:57.379Z,4.80
2019-02-15T07:43:33.695Z,5.20
2019-02-15T07:44:09.839Z,4.90
2019-02-15T07:44:45.981Z,6.17
2019-02-15T07:45:22.727Z,4.67
2019-02-15T07:45:59.055Z,5.63
2019-02-15T07:46:35.154Z,5.50
2019-02-15T07:47:11.247Z,5.90
2019-02-15T07:47:47.352Z,6.77
2019-02-15T07:48:23.618Z,5.67
2019-02-15T07:48:59.818Z,6.40
2019-02-15T07:49:36.113Z,6.10
2019-02-15T07:50:13.941Z,5.90
2019-02-15T07:50:50.322Z,6.67
2019-02-15T07:51:26.599Z,6.60
2019-02-15T07:52:02.670Z,5.97
2019-02-15T07:52:38.734Z,5.77
2019-02-15T07:53:14.958Z,5.83
2019-02-15T07:53:51.070Z,5.87
2019-02-15T07:54:27.107Z,5.25
2019-02-15T07:55:03.117Z,5.37
2019-02-15T07:55:39.404Z,6.00
2019-02-15T07:56:15.649Z,5.67
2019-02-15T07:56:51.914Z,5.50
2019-02-15T07:57:28.227Z,6.10
2019-02-15T07:58:04.342Z,5.20
2019-02-15T07:58:40.636Z,4.63
2019-02-15T07:59:16.664Z,6.73
2019-02-15T07:59:52.786Z,4.73
2019-02-15T08:00:28.853Z,4.07
2019-02-15T08:01:04.805Z,5.60
2019-02-15T08:01:40.826Z,5.00
2019-02-15T08:02:16.880Z,4.83
2019-02-15T08:02:52.931Z,5.03
2019-02-15T08:03:29.044Z,5.60
2019-02-15T08:04:06.853Z,4.80
2019-02-15T08:04:43.158Z,4.83
2019-02-15T08:05:19.234Z,4.73
2019-02-15T08:05:55.398Z,4.40
2019-02-15T08:06:31.499Z,6.27
2019-02-15T08:07:07.538Z,4.70
2019-02-15T08:07:43.629Z,4.53
2019-02-15T08:08:19.813Z,4.87
2019-02-15T08:08:56.024Z,4.33
2019-02-15T08:09:32.261Z,5.23
2019-02-15T08:10:08.866Z,6.97
2019-02-15T08:10:45.003Z,6.63
2019-02-15T08:11:21.132Z,5.67
2019-02-15T08:11:57.161Z,5.90
2019-02-15T08:12:33.272Z,5.47
2019-02-15T08:13:09.311Z,4.63
2019-02-15T08:13:45.373Z,5.87
2019-02-15T08:14:21.492Z,4.93
2019-02-15T08:14:57.616Z,5.27
2019-02-15T08:15:36.342Z,5.43
2019-02-15T08:16:11.698Z,5.87
2019-02-15T08:16:47.853Z,4.80
2019-02-15T08:17:24.108Z,4.80
2019-02-15T08:18:00.228Z,5.67
2019-02-15T08:18:36.288Z,4.77
2019-02-15T08:19:12.488Z,6.13
2019-02-15T08:19:48.646Z,5.90
2019-02-15T08:20:24.763Z,4.80
2019-02-15T08:21:00.813Z,5.33
2019-02-15T08:21:36.970Z,5.23
2019-02-15T08:22:13.129Z,4.37
2019-02-15T08:22:49.194Z,4.37
2019-02-15T08:23:25.335Z,4.57
2019-02-15T08:24:01.590Z,4.40
2019-02-15T08:24:37.681Z,4.60
2019-02-15T08:25:13.728Z,4.10
2019-02-15T08:25:49.982Z,4.53
2019-02-15T08:26:26.108Z,4.97
2019-02-15T08:27:02.251Z,4.40
2019-02-15T08:27:38.454Z,4.43
2019-02-15T08:28:14.602Z,4.23
2019-02-15T08:28:50.667Z,5.07
2019-02-15T08:29:26.678Z,5.23
2019-02-15T08:30:02.707Z,5.40
2019-02-15T08:30:38.915Z,4.57
2019-02-15T08:31:15.009Z,4.50
2019-02-15T08:31:51.297Z,4.90
2019-02-15T08:32:27.450Z,5.47
2019-02-15T08:33:03.513Z,4.80
2019-02-15T08:33:39.494Z,3.70
2019-02-15T08:34:15.750Z,4.87
2019-02-15T08:34:51.932Z,4.70
2019-02-15T08:35:28.216Z,4.30
2019-02-15T08:36:04.531Z,5.30